Airport View

Enter AWOS ICAO identifier for current METAR.

ex. KFNL

KICL 300415Z AUTO 00000KT 10SM M03/M03 A3020 RMK AO2

30 Oct 2020 04:24

Frequency: 132.025

Phone: 712-542-3345

Other Area AWOS: KSDA - KRDK - KEVU - KCSQ

TAF KOFF 300200Z 3002/3108 VRB05KT 9999 SCT250 QNH3012INS BECMG 3005/3006 15007KT 9999 SCT090 SCT250 QNH3010INS BECMG 3014/3015 34007KT 9999 FEW250 QNH3010INS WND VRB05KT AFT 3020 TX11/3020Z TNM01/3006Z